Date,TemperatureHighF,TemperatureAvgF,TemperatureLowF,DewpointHighF,DewpointAvgF,DewpointLowF,HumidityHigh,HumidityAvg,HumidityLow,PressureMaxIn,PressureMinIn,WindSpeedMaxMPH,WindSpeedAvgMPH,GustSpeedMaxMPH,PrecipitationSumIn
2013-1-1,44,40,36,41,38,32,99,90,77,0.00,40.00,0,0,0,0.00
2013-1-2,42,36,32,32,29,26,86,76,56,0.00,40.00,0,0,0,0.00
2013-1-3,49,36,26,31,26,24,93,70,42,0.00,40.00,9,4,17,0.00
2013-1-4,50,41,33,32,27,23,82,60,35,0.00,40.00,5,2,8,0.00
2013-1-5,53,44,37,39,35,29,94,72,53,0.00,40.00,8,3,17,0.00
2013-1-6,56,42,33,36,29,19,98,65,26,0.00,40.00,11,5,16,0.00
2013-1-7,53,41,30,32,26,19,80,56,32,0.00,40.00,9,5,13,0.00
2013-1-8,49,44,40,49,39,28,100,82,59,0.00,40.00,8,6,14,0.28
2013-1-9,55,53,49,55,53,49,100,99,97,0.00,40.00,11,7,21,1.43
2013-1-10,67,57,48,62,52,44,100,83,59,0.00,40.00,14,4,22,0.11
2013-1-11,72,57,44,50,45,42,96,70,35,0.00,40.00,14,7,23,0.01
2013-1-12,69,57,37,68,55,35,100,92,69,0.00,40.00,17,7,38,0.69
2013-1-13,43,35,28,35,28,20,91,75,56,0.00,40.00,17,11,23,0.08
2013-1-14,46,33,25,26,22,16,80,63,44,0.00,40.00,9,6,16,0.02
2013-1-15,35,32,28,31,26,16,94,78,54,0.00,40.00,9,5,16,0.11
2013-1-16,47,36,27,28,20,14,80,56,31,0.00,40.00,9,4,14,0.01
2013-1-17,58,43,31,33,27,20,72,55,34,0.00,40.00,13,6,20,0.00
2013-1-18,59,45,31,33,30,27,86,58,32,0.00,40.00,9,5,14,0.00
2013-1-19,64,48,36,40,34,26,75,60,39,0.00,40.00,9,5,16,0.00
2013-1-20,68,51,36,47,40,35,98,72,40,0.00,40.00,9,4,17,0.00
2013-1-21,57,47,40,42,36,29,90,68,42,0.00,40.00,10,5,15,0.00
2013-1-22,56,42,31,34,29,25,81,61,41,0.00,40.00,9,5,13,0.00
2013-1-23,72,52,36,53,41,29,88,68,50,0.00,40.00,9,5,18,0.00
2013-1-24,58,50,44,55,47,38,98,90,79,0.00,40.00,11,7,17,0.00
2013-1-25,58,48,41,47,42,37,98,82,63,0.00,40.00,11,6,19,0.00
2013-1-26,46,44,43,44,43,42,100,95,89,0.00,40.00,10,8,17,0.01
2013-1-27,68,54,44,61,52,44,100,92,74,0.00,40.00,13,7,17,0.01
2013-1-28,74,69,65,66,63,60,91,82,67,0.00,40.00,16,10,24,0.01
2013-1-29,73,66,52,67,61,47,98,86,67,0.00,40.00,18,12,32,0.49
2013-1-30,52,45,36,50,32,24,93,63,42,0.00,40.00,21,9,32,0.48
2013-1-31,66,53,33,31,25,19,73,37,16,0.00,40.00,13,7,23,0.00
2013-2-1,53,40,29,25,22,19,70,50,29,0.00,40.00,11,7,23,0.00
2013-2-2,66,47,32,43,30,24,82,55,28,0.00,40.00,9,6,15,0.00
2013-2-3,67,52,38,38,29,22,72,45,20,0.00,40.00,8,4,13,0.00
2013-2-4,61,52,48,54,43,28,100,72,38,0.00,40.00,8,5,13,0.08
2013-2-5,64,55,49,57,53,49,100,95,73,0.00,40.00,6,3,10,0.01
2013-2-6,56,52,47,56,52,47,100,98,93,0.00,40.00,11,6,19,0.15
2013-2-7,65,56,52,61,55,50,100,95,80,0.00,40.00,16,7,23,0.02
2013-2-8,63,52,42,51,39,31,92,66,34,0.00,40.00,13,8,20,0.02
2013-2-9,49,44,39,48,40,35,98,86,65,0.00,40.00,12,9,19,0.17
2013-2-10,67,58,49,56,41,31,100,59,30,0.00,40.00,14,6,26,0.97
2013-2-11,57,49,43,38,33,27,79,55,37,0.00,40.00,8,5,14,0.20
2013-2-12,45,43,41,43,40,33,100,91,69,0.00,40.00,9,6,17,0.54
2013-2-13,55,44,38,42,38,35,99,80,54,0.00,40.00,10,6,21,0.03
2013-2-14,67,50,35,42,35,29,98,62,27,0.00,40.00,7,4,16,0.00
2013-2-15,52,45,35,40,27,16,89,51,25,0.00,40.00,14,9,26,0.03
2013-2-16,51,41,32,32,21,12,88,49,21,0.00,40.00,15,6,26,0.03
2013-2-17,71,52,33,36,28,20,68,44,22,0.00,40.00,19,9,27,0.00
2013-2-18,72,58,49,57,44,32,78,60,30,0.00,40.00,19,13,33,0.00
2013-2-19,60,48,37,33,24,18,59,40,20,0.00,40.00,11,6,17,0.00
2013-2-20,47,39,35,37,31,23,91,77,39,0.00,40.00,14,9,25,0.30
2013-2-21,45,39,35,42,36,29,100,90,78,0.00,40.00,15,8,25,0.16
2013-2-22,49,40,31,40,30,26,100,72,45,0.00,40.00,12,6,17,0.01
2013-2-23,54,41,28,33,29,24,83,62,41,0.00,40.00,8,4,12,0.00
2013-2-24,65,49,34,39,35,28,93,63,37,0.00,40.00,11,7,17,0.00
2013-2-25,57,49,42,55,41,33,100,74,58,0.00,40.00,14,7,21,0.16
2013-2-26,56,44,38,38,32,28,92,67,38,0.00,40.00,13,8,27,0.06
2013-2-27,55,43,32,35,29,22,91,59,37,0.00,40.00,16,8,26,0.00
2013-2-28,55,43,31,31,27,26,82,57,35,0.00,40.00,11,7,24,0.00
2013-3-1,52,41,30,31,27,24,87,60,35,0.00,40.00,14,8,23,0.00
2013-3-2,50,38,28,24,19,15,70,48,26,0.00,40.00,13,8,26,0.00
2013-3-3,67,47,29,33,25,17,66,45,25,0.00,40.00,12,7,20,0.00
2013-3-4,78,63,52,52,45,33,74,53,32,0.00,40.00,18,11,30,0.00
2013-3-5,61,50,40,49,27,17,68,44,23,0.00,40.00,20,13,36,0.00
2013-3-6,62,45,30,25,20,11,69,40,15,0.00,40.00,8,4,14,0.00
2013-3-7,67,51,37,33,26,18,71,41,21,0.00,40.00,12,7,17,0.00
2013-3-8,65,56,43,39,34,26,67,44,31,0.00,40.00,10,8,17,0.00
2013-3-9,68,62,55,59,51,35,80,68,36,0.00,40.00,14,10,22,0.00
2013-3-10,66,52,41,60,43,26,97,72,52,0.00,40.00,14,10,26,0.54
2013-3-11,55,43,30,32,25,17,88,54,27,0.00,40.00,12,6,20,0.15
2013-3-12,66,50,33,32,25,17,75,42,18,0.00,40.00,6,3,11,0.00
2013-3-13,66,53,40,37,29,24,70,44,21,0.00,40.00,7,4,12,0.00
2013-3-14,77,58,40,43,36,28,67,46,28,0.00,40.00,10,5,20,0.00
2013-3-15,80,66,53,55,47,41,82,53,28,0.00,40.00,13,8,28,0.00
2013-3-16,81,68,57,55,51,44,81,55,37,0.00,40.00,17,10,23,0.00
2013-3-17,75,66,54,62,56,47,86,71,51,0.00,40.00,20,10,28,0.00
2013-3-18,69,57,50,55,47,35,97,71,39,0.00,40.00,14,8,21,0.03
2013-3-19,65,54,40,41,33,24,88,50,24,0.00,40.00,14,6,21,0.02
2013-3-20,65,54,42,34,27,19,58,38,18,0.00,40.00,12,6,24,0.00
2013-3-21,52,47,45,39,31,23,66,53,36,0.00,40.00,13,9,22,0.02
2013-3-22,46,44,41,45,42,35,100,96,64,0.00,40.00,11,8,19,0.09
2013-3-23,49,46,44,49,46,44,100,100,97,0.00,40.00,11,5,17,0.31
2013-3-24,49,43,39,48,32,22,100,66,43,0.00,40.00,18,12,33,0.05
2013-3-25,50,39,28,26,19,13,72,47,23,0.00,40.00,16,9,30,0.01
2013-3-26,54,40,27,24,19,16,69,46,27,0.00,40.00,9,4,16,0.00
2013-3-27,66,46,32,28,24,21,63,44,19,0.00,40.00,14,8,21,0.00
2013-3-28,72,69,65,53,51,49,63,53,46,0.00,40.00,11,8,19,0.00
2013-3-29,74,67,58,59,55,52,88,67,51,0.00,40.00,11,7,19,0.00
2013-3-30,69,64,59,64,58,-100,100,88,73,0.00,40.00,8,5,24,1.02
2013-3-31,74,64,56,63,57,47,100,79,52,0.00,40.00,9,5,44,1.22
2013-4-1,78,64,50,57,47,43,88,57,31,0.00,40.00,6,4,13,0.10
2013-4-2,65,57,46,52,47,36,83,69,55,0.00,40.00,14,9,25,0.00
2013-4-3,51,46,42,43,37,29,95,73,50,0.00,40.00,11,8,21,0.04
2013-4-4,49,44,40,43,40,33,97,87,66,0.00,40.00,9,6,17,0.27
2013-4-5,72,57,41,46,42,38,95,62,35,0.00,40.00,6,4,11,0.03
2013-4-6,77,64,51,54,48,42,84,59,35,0.00,40.00,17,8,25,0.00
2013-4-7,71,66,59,60,57,54,89,74,61,0.00,40.00,14,9,20,0.00
2013-4-8,78,70,61,62,59,56,89,71,54,0.00,40.00,15,10,25,0.00
2013-4-9,85,75,67,65,61,58,84,65,41,0.00,40.00,17,11,27,0.00
2013-4-10,77,54,41,67,49,37,93,86,67,0.00,40.00,16,11,26,0.34
2013-4-11,60,46,34,39,35,32,92,69,40,0.00,40.00,13,6,22,0.02
2013-4-12,75,57,38,48,42,35,94,61,32,0.00,40.00,6,3,14,0.02
2013-4-13,79,64,50,48,43,39,72,49,28,0.00,40.00,12,6,20,0.00
2013-4-14,81,69,56,58,53,45,76,58,39,0.00,40.00,14,8,24,0.00
2013-4-15,87,74,64,67,63,57,94,71,45,0.00,40.00,13,9,19,0.00
2013-4-16,87,78,72,68,66,64,82,67,48,0.00,40.00,13,10,21,0.00
2013-4-17,85,78,73,70,67,63,88,70,50,0.00,40.00,20,13,31,0.00
2013-4-18,77,58,44,69,50,32,96,75,55,0.00,40.00,20,13,31,1.00
2013-4-19,60,47,34,35,30,28,88,56,29,0.00,40.00,15,6,24,0.03
2013-4-20,71,56,40,40,35,31,78,49,27,0.00,40.00,12,6,18,0.00
2013-4-21,72,61,47,48,42,37,79,52,35,0.00,40.00,10,6,17,0.00
2013-4-22,78,64,46,50,46,41,84,55,35,0.00,40.00,11,7,21,0.00
2013-4-23,75,60,45,62,52,40,85,74,59,0.00,40.00,17,9,25,0.00
2013-4-24,63,50,40,40,35,32,90,60,31,0.00,40.00,15,8,24,0.05
2013-4-25,72,58,40,44,38,33,81,50,26,0.00,40.00,8,5,15,0.05
2013-4-26,72,62,55,62,51,39,85,66,47,0.00,40.00,12,7,18,0.01
2013-4-27,76,66,54,69,60,52,94,81,59,0.00,40.00,9,6,17,0.01
2013-4-28,81,64,46,59,53,46,99,73,40,0.00,40.00,5,4,15,0.00
2013-4-29,86,69,58,66,59,55,95,73,44,0.00,40.00,12,5,18,0.00
2013-4-30,84,78,62,62,59,54,74,54,42,0.00,40.00,10,8,16,0.00
2013-5-1,80,71,62,67,62,59,95,75,54,0.00,40.00,13,6,22,0.00
2013-5-2,67,56,42,61,50,37,93,80,65,0.00,40.00,19,12,29,0.03
2013-5-3,62,48,38,38,33,26,90,62,27,0.00,40.00,18,12,33,0.07
2013-5-4,63,51,39,40,34,28,83,54,29,0.00,40.00,14,6,27,0.01
2013-5-5,64,52,40,45,40,37,91,67,42,0.00,40.00,11,7,21,0.00
2013-5-6,77,61,44,54,48,43,97,67,38,0.00,40.00,10,4,17,0.00
2013-5-7,81,66,51,59,50,47,93,62,30,0.00,40.00,4,3,10,0.00
2013-5-8,83,72,59,61,55,50,79,57,38,0.00,40.00,12,7,19,0.00
2013-5-9,71,66,61,65,61,56,97,85,60,0.00,40.00,9,6,14,2.23
2013-5-10,83,69,61,68,60,-100,98,78,54,0.00,40.00,8,4,14,0.25
2013-5-11,79,68,59,58,51,-100,90,62,30,0.00,40.00,11,6,20,0.01
2013-5-12,75,65,53,53,43,37,68,46,27,0.00,40.00,9,5,15,0.00
2013-5-13,85,68,53,51,46,43,76,49,29,0.00,40.00,12,6,22,0.00
2013-5-14,87,73,62,64,53,46,74,52,28,0.00,40.00,12,5,20,0.00
2013-5-15,78,69,64,67,60,51,96,75,51,0.00,40.00,14,10,23,0.66
2013-5-16,67,58,63,65,39,-100,99,96,93,0.00,40.00,12,6,25,2.02
2013-5-17,84,71,64,73,60,-100,100,87,65,0.00,40.00,9,5,15,0.01
2013-5-18,89,79,71,73,72,70,99,80,56,0.00,40.00,12,7,19,0.00
2013-5-19,89,80,69,72,68,65,90,68,48,0.00,40.00,16,11,25,0.00
2013-5-20,86,78,72,71,68,64,83,72,57,0.00,40.00,16,11,25,0.00
2013-5-21,82,69,59,73,65,56,98,87,69,0.00,40.00,27,8,44,1.69
2013-5-22,84,69,59,65,62,58,99,80,49,0.00,40.00,6,3,9,0.61
2013-5-23,85,72,65,74,67,62,96,83,52,0.00,40.00,8,4,13,0.00
2013-5-24,81,74,69,68,66,63,93,78,64,0.00,40.00,10,7,18,0.00
2013-5-25,85,74,65,71,65,58,90,75,63,0.00,40.00,10,6,27,0.00
2013-5-26,80,73,67,71,67,64,94,83,58,0.00,40.00,12,7,19,0.01
2013-5-27,85,76,70,70,68,66,93,77,55,0.00,40.00,13,8,21,0.01
2013-5-28,85,76,70,68,66,64,90,72,52,0.00,40.00,14,9,24,0.00
2013-5-29,84,77,70,70,67,65,91,72,59,0.00,40.00,13,10,22,0.00
2013-5-30,84,79,73,73,70,67,84,75,65,0.00,40.00,17,11,31,0.00
2013-5-31,90,82,76,76,72,70,84,71,55,0.00,40.00,17,11,27,0.00
2013-6-1,81,77,71,76,72,70,96,85,73,0.00,40.00,14,7,23,0.20
2013-6-2,80,72,62,70,61,54,98,70,41,0.00,40.00,9,5,17,0.01
2013-6-3,85,72,59,64,60,56,92,68,47,0.00,40.00,7,5,12,0.00
2013-6-4,86,74,65,70,65,61,89,75,57,0.00,40.00,12,5,20,0.00
2013-6-5,89,78,68,72,69,65,94,76,57,0.00,40.00,13,6,20,0.00
2013-6-6,76,72,66,71,68,64,96,88,72,0.00,40.00,11,5,28,1.21
2013-6-7,82,71,61,65,59,54,92,68,39,0.00,40.00,8,6,14,0.01
2013-6-8,85,74,60,63,59,55,85,63,41,0.00,40.00,9,4,15,0.00
2013-6-9,89,75,67,72,68,63,97,79,52,0.00,40.00,10,4,22,1.20
2013-6-10,94,83,69,74,71,66,96,70,46,0.00,40.00,9,4,14,1.20
2013-6-11,92,82,70,76,71,68,94,72,51,0.00,40.00,9,6,17,0.00
2013-6-12,91,82,73,76,72,69,93,74,53,0.00,40.00,11,6,24,0.00
2013-6-13,97,85,73,75,72,71,93,68,44,0.00,40.00,4,3,10,0.00
2013-6-14,94,84,75,77,74,72,92,73,55,0.00,40.00,6,3,12,0.00
2013-6-15,89,81,73,75,70,67,91,70,52,0.00,40.00,8,6,17,0.09
2013-6-16,94,82,73,77,72,66,90,71,47,0.00,40.00,11,5,20,0.09
2013-6-17,88,76,69,74,70,66,96,83,60,0.00,40.00,14,5,31,0.76
2013-6-18,84,77,69,74,69,67,94,79,62,0.00,40.00,7,4,12,0.05
2013-6-19,88,78,69,72,70,68,98,79,53,0.00,40.00,8,5,13,0.00
2013-6-20,91,80,73,75,72,69,92,78,54,0.00,40.00,8,6,16,0.00
2013-6-22,92,88,81,75,70,67,77,56,46,0.00,40.00,9,8,16,0.00
2013-6-23,92,83,74,74,71,68,92,67,47,0.00,40.00,12,8,18,0.00
2013-6-24,92,84,73,74,70,68,92,66,46,0.00,40.00,10,7,19,0.00
2013-6-25,92,84,75,73,71,67,87,67,46,0.00,40.00,15,9,21,0.00
2013-6-26,94,84,76,72,71,68,86,66,44,0.00,40.00,13,8,20,0.00
2013-6-27,100,86,75,75,72,69,87,64,40,0.00,40.00,6,4,14,0.00
2013-6-28,99,86,74,74,69,62,92,61,33,0.00,40.00,11,4,17,0.00
2013-6-29,93,84,75,68,61,53,76,50,28,0.00,40.00,14,6,24,0.00
2013-6-30,87,79,70,61,56,53,66,49,32,0.00,40.00,14,8,22,0.00
2013-7-1,86,77,66,61,59,55,80,56,38,0.00,40.00,9,6,20,0.00
2013-7-2,88,76,63,60,54,43,73,50,21,0.00,40.00,8,4,19,0.00
2013-7-3,89,78,61,63,54,49,81,48,26,0.00,40.00,5,3,15,0.00
2013-7-4,90,77,64,64,60,56,86,58,38,0.00,40.00,7,4,11,0.00
2013-7-5,93,81,65,65,62,59,83,55,35,0.00,40.00,8,4,13,0.00
2013-7-6,92,79,68,71,63,59,77,59,33,0.00,40.00,8,5,14,0.00
2013-7-7,95,83,69,71,66,63,88,60,39,0.00,40.00,7,4,15,0.00
2013-7-8,95,82,73,75,71,68,94,70,43,0.00,40.00,9,5,15,0.00
2013-7-9,97,86,74,73,69,62,83,59,38,0.00,40.00,10,6,17,0.00
2013-7-10,103,88,80,75,65,-100,69,51,38,0.00,40.00,7,4,16,0.00
2013-7-11,101,82,73,75,70,66,94,70,38,0.00,40.00,11,4,27,0.46
2013-7-12,96,82,71,74,71,68,96,72,43,0.00,40.00,9,4,15,0.02
2013-7-13,92,81,68,71,61,57,79,54,33,0.00,40.00,6,4,11,0.00
2013-7-14,81,74,70,69,64,60,93,71,54,0.00,40.00,7,4,11,0.06
2013-7-15,81,74,70,71,68,66,95,84,66,0.00,40.00,9,5,18,0.21
2013-7-16,90,85,78,72,69,67,77,60,49,0.00,40.00,9,6,16,0.04
2013-7-17,94,83,74,73,70,65,92,67,43,0.00,40.00,9,5,18,0.00
2013-7-18,98,87,72,75,68,64,95,59,33,0.00,40.00,11,4,30,0.00
2013-7-19,88,79,71,73,70,66,93,76,59,0.00,40.00,11,5,17,0.00
2013-7-20,92,79,73,75,70,-100,96,78,48,0.00,40.00,7,3,10,0.34
2013-7-21,94,81,72,76,72,68,95,77,49,0.00,40.00,11,5,18,0.04
2013-7-22,95,85,76,75,72,68,89,67,48,0.00,40.00,9,6,16,0.04
2013-7-23,98,86,77,77,72,68,80,66,48,0.00,40.00,9,6,19,0.00
2013-7-24,85,76,70,72,70,68,96,80,58,0.00,40.00,11,5,20,0.81
2013-7-25,92,81,70,73,70,67,93,71,46,0.00,40.00,6,4,12,0.01
2013-7-26,78,74,71,73,71,68,95,88,78,0.00,40.00,9,6,18,0.85
2013-7-27,88,76,69,69,68,65,96,77,47,0.00,40.00,8,5,13,0.59
2013-7-28,89,78,67,70,67,65,95,71,47,0.00,40.00,8,5,16,0.00
2013-7-29,91,82,73,75,70,67,90,70,46,0.00,40.00,11,6,16,0.00
2013-7-30,93,84,76,74,70,68,76,64,48,0.00,40.00,12,7,18,0.00
2013-7-31,98,86,78,76,71,64,79,62,45,0.00,40.00,8,4,14,0.00
2013-8-1,95,86,78,77,74,70,93,70,49,0.00,40.00,7,4,15,0.00
2013-8-2,100,88,76,77,72,68,90,62,37,0.00,40.00,8,5,16,0.00
2013-8-3,97,86,76,75,71,68,83,63,39,0.00,40.00,7,5,13,0.00
2013-8-4,98,87,75,75,71,66,91,63,37,0.00,40.00,6,4,13,0.00
2013-8-5,102,89,77,76,69,64,85,55,33,0.00,40.00,7,5,16,0.00
2013-8-6,103,90,77,72,68,66,75,51,31,0.00,40.00,10,5,17,0.00
2013-8-7,104,89,78,71,68,66,73,52,30,0.00,40.00,9,6,15,0.00
2013-8-8,102,89,76,75,69,65,77,55,30,0.00,40.00,10,5,15,0.00
2013-8-9,101,88,76,73,67,60,80,54,27,0.00,40.00,7,4,14,0.00
2013-8-10,103,90,77,72,70,64,78,54,29,0.00,40.00,7,4,13,0.00
2013-8-11,99,83,74,75,70,64,86,68,35,0.00,40.00,11,5,25,0.00
2013-8-12,99,85,75,74,71,66,88,67,37,0.00,40.00,10,5,24,0.00
2013-8-13,92,80,72,73,68,-100,92,71,47,0.00,40.00,8,5,14,0.00
2013-8-14,86,78,73,71,67,61,90,70,51,0.00,40.00,9,6,16,0.00
2013-8-15,87,69,61,61,47,-100,87,56,35,0.00,40.00,7,5,14,0.00
2013-8-16,83,70,63,61,54,-100,86,64,41,0.00,40.00,8,4,15,0.00
2013-8-17,86,72,61,60,56,-100,87,61,37,0.00,40.00,9,5,17,0.00
2013-8-18,90,78,64,68,62,56,93,62,32,0.00,40.00,7,4,14,0.00
2013-8-19,93,75,67,68,53,-100,92,57,31,0.00,40.00,7,5,13,0.00
2013-8-20,97,79,66,68,59,-100,90,56,26,0.00,40.00,8,4,14,0.00
2013-8-21,98,84,68,70,62,56,81,51,26,0.00,40.00,7,4,14,0.00
2013-8-22,100,88,75,72,66,62,78,52,30,0.00,40.00,7,4,12,0.00
2013-8-23,100,87,73,71,66,62,83,54,30,0.00,40.00,8,4,16,0.00
2013-8-24,97,85,73,72,65,-100,86,56,33,0.00,40.00,9,6,17,0.00
2013-8-25,96,85,72,72,67,61,89,59,35,0.00,40.00,10,5,22,0.00
2013-8-26,95,84,72,71,65,54,83,56,25,0.00,40.00,12,6,20,0.00
2013-8-27,91,79,72,72,67,62,85,69,44,0.00,40.00,7,4,12,0.00
2013-8-28,101,95,82,66,64,60,58,37,28,0.00,40.00,5,3,11,0.00
2013-8-29,103,88,75,70,65,59,72,49,26,0.00,40.00,6,4,11,0.00
2013-8-30,102,89,74,69,64,60,72,47,27,0.00,40.00,6,4,12,0.00
2013-8-31,104,86,75,73,63,-100,70,50,27,0.00,40.00,6,4,17,0.00
2013-9-1,104,88,74,72,68,62,80,54,28,0.00,40.00,7,4,17,0.00
2013-9-2,98,85,72,73,69,65,89,61,37,0.00,40.00,9,5,17,0.05
2013-9-3,97,85,72,74,68,60,85,60,36,0.00,40.00,6,4,17,0.05
2013-9-4,96,84,71,67,64,59,84,54,31,0.00,40.00,10,6,15,0.00
2013-9-5,97,82,67,65,60,56,76,49,28,0.00,40.00,8,5,20,0.00
2013-9-6,98,83,67,67,61,55,81,50,27,0.00,40.00,6,5,13,0.00
2013-9-7,99,84,70,71,60,-100,74,47,27,0.00,40.00,6,4,21,0.00
2013-9-8,98,85,69,69,63,58,87,53,29,0.00,40.00,10,4,17,0.00
2013-9-9,96,84,69,69,61,56,81,49,27,0.00,40.00,12,5,19,0.00
2013-9-10,95,84,70,70,63,59,67,50,35,0.00,40.00,9,4,16,0.00
2013-9-11,98,83,71,70,65,60,82,59,30,0.00,40.00,11,4,18,0.00
2013-9-12,98,83,70,70,66,60,86,60,31,0.00,40.00,6,3,12,0.00
2013-9-13,92,82,73,69,67,65,80,62,43,0.00,40.00,9,5,16,0.00
2013-9-14,88,76,67,67,52,-100,71,46,32,0.00,40.00,12,8,22,0.00
2013-9-15,94,78,62,63,55,48,63,48,36,0.00,40.00,6,5,10,0.00
2013-9-16,97,82,69,66,61,56,74,52,29,0.00,40.00,7,4,14,0.00
2013-9-17,92,82,72,65,60,53,61,49,39,0.00,40.00,8,5,12,0.00
2013-9-18,80,78,76,68,67,65,77,70,61,0.00,40.00,4,4,7,0.14
2013-9-19,93,82,73,72,68,63,92,65,40,0.00,40.00,8,5,17,0.39
2013-9-20,73,72,71,71,70,67,96,93,87,0.00,40.00,8,5,14,2.34
2013-9-21,82,70,59,69,52,-100,92,58,31,0.00,40.00,8,5,15,0.01
2013-9-22,81,68,55,54,51,48,83,56,33,0.00,40.00,7,4,16,0.00
2013-9-23,83,70,55,57,53,50,89,59,34,0.00,40.00,9,5,15,0.00
2013-9-24,92,76,62,62,52,39,83,49,17,0.00,40.00,12,6,20,0.00
2013-9-25,91,75,58,60,52,45,80,48,24,0.00,40.00,8,4,17,0.00
2013-9-26,93,77,60,63,57,53,89,55,27,0.00,40.00,8,5,12,0.00
2013-9-27,89,77,64,65,60,58,85,59,39,0.00,40.00,10,6,19,0.00
2013-9-28,85,74,70,74,64,-100,96,75,53,0.00,40.00,12,6,22,1.00
2013-9-29,84,72,66,70,66,62,96,83,52,0.00,40.00,7,4,14,0.84
2013-9-30,83,73,62,69,64,60,95,76,50,0.00,40.00,7,4,11,0.01
2013-10-1,80,77,75,71,70,70,85,79,71,0.00,40.00,7,6,12,0.01
2013-10-2,87,78,71,72,69,66,95,77,53,0.00,40.00,10,7,16,0.01
2013-10-3,87,78,71,72,69,67,94,77,53,0.00,40.00,10,7,17,0.00
2013-10-4,87,78,70,73,68,63,94,74,46,0.00,40.00,12,6,19,0.00
2013-10-5,83,69,52,74,63,49,95,82,55,0.00,40.00,12,8,26,0.15
2013-10-6,73,59,48,49,45,40,94,65,33,0.00,40.00,12,5,22,0.15
2013-10-7,78,63,51,46,40,32,79,48,21,0.00,40.00,10,5,17,0.01
2013-10-8,76,62,51,53,47,43,83,61,34,0.00,40.00,8,4,13,0.00
2013-10-9,80,64,50,54,51,48,92,65,38,0.00,40.00,6,4,11,0.00
2013-10-10,81,69,54,61,55,52,93,64,41,0.00,40.00,10,5,16,0.00
2013-10-11,83,72,60,67,62,56,93,74,57,0.00,40.00,13,7,20,0.00
2013-10-12,86,73,69,75,66,-100,94,81,63,0.00,40.00,13,5,21,0.84
2013-10-13,76,71,69,69,66,63,96,85,67,0.00,40.00,9,5,16,0.84
2013-10-14,70,67,64,68,63,56,94,86,75,0.00,40.00,7,6,12,0.06
2013-10-15,76,68,57,71,66,55,95,92,83,0.00,40.00,11,7,28,1.01
2013-10-16,58,55,53,56,53,51,94,93,92,0.00,40.00,10,6,16,0.75
2013-10-17,72,57,46,54,48,44,95,74,41,0.00,40.00,7,4,11,0.04
2013-10-18,69,58,48,57,51,46,94,80,52,0.00,40.00,6,3,12,0.01
2013-10-19,64,53,45,57,40,-100,89,66,38,0.00,40.00,12,7,22,0.01
2013-10-20,70,55,39,46,41,36,92,64,36,0.00,40.00,10,5,17,0.00
2013-10-21,67,57,49,59,52,45,92,84,68,0.00,40.00,11,5,19,0.04
2013-10-22,76,58,43,52,45,41,93,67,30,0.00,40.00,7,4,11,0.01
2013-10-23,76,61,48,51,47,44,90,62,33,0.00,40.00,6,4,11,0.01
2013-10-24,75,62,51,53,48,42,89,63,37,0.00,40.00,9,5,16,0.00
2013-10-25,62,53,45,43,36,30,72,53,38,0.00,40.00,12,7,20,0.00
2013-10-26,57,48,45,56,43,-100,95,86,72,0.00,40.00,9,5,15,2.11
2013-10-27,70,61,55,58,56,53,96,83,60,0.00,40.00,9,3,15,1.17
2013-10-28,73,63,55,62,56,-100,95,83,68,0.00,40.00,8,5,13,0.00
2013-10-29,77,70,64,67,64,60,93,82,66,0.00,40.00,13,8,19,0.00
2013-10-30,71,68,64,68,63,58,95,87,69,0.00,40.00,17,10,26,0.20
2013-10-31,79,67,53,70,56,43,96,73,31,0.00,40.00,9,5,18,0.24
2013-11-1,79,60,44,53,45,38,94,64,25,0.00,40.00,9,3,19,0.00
2013-11-2,64,56,47,44,38,30,77,53,30,0.00,40.00,15,8,23,0.00
2013-11-3,65,52,39,44,38,33,86,61,39,0.00,40.00,10,6,19,0.00
2013-11-4,56,54,52,55,49,41,95,82,61,0.00,40.00,10,6,15,0.24
2013-11-5,66,62,56,65,60,54,96,93,85,0.00,40.00,9,6,16,1.70
2013-11-6,69,56,41,67,52,37,96,86,70,0.00,40.00,15,10,22,1.82
2013-11-7,62,47,37,43,38,34,91,73,39,0.00,40.00,5,3,10,0.01
2013-11-8,68,53,39,46,40,35,92,65,32,0.00,40.00,10,4,15,0.00
2013-11-9,62,55,51,49,44,-100,91,71,49,0.00,40.00,9,5,14,0.07
2013-11-10,69,59,53,49,47,45,83,66,43,0.00,40.00,6,3,13,0.02
2013-11-11,72,58,46,54,49,45,95,74,44,0.00,40.00,5,3,9,0.00
2013-11-12,58,49,33,53,35,20,89,61,29,0.00,40.00,15,9,25,0.00
2013-11-13,51,38,26,25,19,14,75,50,23,0.00,40.00,8,4,12,0.00
2013-11-14,57,44,26,32,26,19,86,52,31,0.00,40.00,10,5,14,0.00
2013-11-15,61,52,46,57,46,32,95,78,49,0.00,40.00,7,5,11,0.01
2013-11-16,73,65,58,69,59,-100,96,85,68,0.00,40.00,13,9,22,0.01
2013-11-17,86,75,62,70,58,34,86,58,30,0.00,40.00,12,8,21,0.00
2013-11-18,70,60,50,37,31,26,55,35,20,0.00,40.00,7,4,12,0.00
2013-11-19,61,54,48,39,31,22,63,44,22,0.00,40.00,11,7,21,0.00
2013-11-20,64,55,41,39,34,30,73,47,31,0.00,40.00,10,6,16,0.00
2013-11-21,71,63,57,64,52,35,96,69,38,0.00,40.00,10,5,31,0.73
2013-11-22,62,42,38,61,40,36,95,91,87,0.00,40.00,17,11,31,1.48
2013-11-23,47,41,35,39,32,-100,94,77,58,0.00,40.00,10,8,17,0.49
2013-11-24,36,33,29,25,22,14,83,64,42,0.00,40.00,9,6,17,0.02
2013-11-25,35,33,31,33,29,22,93,86,63,0.00,40.00,8,5,15,0.42
2013-11-26,50,40,35,35,31,22,93,71,45,0.00,40.00,16,11,30,0.03
2013-11-27,46,35,26,22,16,12,70,49,26,0.00,40.00,14,6,21,0.01
2013-11-28,51,36,23,28,21,16,83,59,29,0.00,40.00,7,3,12,0.00
2013-11-29,56,41,26,34,27,22,89,61,33,0.00,40.00,7,4,11,0.00
2013-11-30,66,50,35,46,36,-100,77,62,44,0.00,40.00,11,6,21,0.00
2013-12-1,67,57,48,55,51,44,91,79,66,0.00,40.00,7,5,15,0.00
2013-12-2,58,52,45,54,51,44,97,96,85,0.00,40.00,4,2,8,0.01
2013-12-3,65,51,43,55,48,42,99,92,66,0.00,40.00,9,4,12,0.01
2013-12-4,79,59,47,63,51,40,98,77,46,0.00,40.00,10,5,15,0.02
2013-12-5,49,37,32,40,30,25,92,79,63,0.00,40.00,16,10,27,0.24
2013-12-6,33,30,25,31,27,22,93,89,84,0.00,40.00,10,4,17,1.66
2013-12-7,33,28,24,27,23,20,88,81,71,0.00,40.00,9,3,16,0.01
2013-12-8,36,32,28,35,28,22,95,88,74,0.00,40.00,7,4,16,0.01
2013-12-9,35,33,30,33,29,25,94,86,80,0.00,40.00,10,6,16,0.01
2013-12-10,43,32,21,26,22,16,92,69,41,0.00,40.00,10,5,17,0.00
2013-12-11,46,32,22,33,26,19,92,79,52,0.00,40.00,7,4,14,0.00
2013-12-12,47,35,25,26,23,19,90,64,32,0.00,40.00,7,4,11,0.00
2013-12-13,40,38,36,39,31,24,95,78,55,0.00,40.00,8,5,13,0.75
2013-12-14,45,39,31,41,33,-100,96,84,71,0.00,40.00,15,8,23,0.20
2013-12-15,57,40,27,32,28,23,89,66,37,0.00,40.00,6,4,10,0.01
2013-12-16,66,44,36,36,22,-100,79,53,3,0.00,40.00,6,5,13,0.00
2013-12-17,72,51,32,40,35,30,93,58,29,0.00,40.00,4,2,8,0.00
2013-12-18,69,52,37,43,38,34,93,61,32,0.00,40.00,14,6,22,0.00
2013-12-19,70,59,50,61,52,40,93,78,59,0.00,40.00,16,10,29,0.00
2013-12-20,70,62,45,65,58,44,98,87,80,0.00,40.00,14,7,24,0.01
2013-12-21,54,45,36,54,44,-100,100,98,98,0.00,40.00,11,5,27,1.53
2013-12-22,45,36,31,45,31,23,100,83,71,0.00,40.00,15,9,22,0.04
2013-12-23,47,33,24,28,25,22,92,73,46,0.00,40.00,8,4,15,0.00
2013-12-24,48,35,23,31,28,22,96,75,52,0.00,40.00,9,5,17,0.00
2013-12-25,52,38,29,37,32,28,97,80,54,0.00,40.00,7,4,11,0.00
2013-12-26,55,40,29,36,33,29,99,77,48,0.00,40.00,6,3,12,0.01
2013-12-27,58,43,32,38,34,31,95,71,41,0.00,40.00,4,2,11,0.01
2013-12-28,59,47,39,40,34,-100,90,64,43,0.00,40.00,7,3,14,0.00
2013-12-29,58,44,32,39,32,23,76,64,50,0.00,40.00,16,7,27,0.00
2013-12-30,44,34,28,27,24,20,92,68,45,0.00,40.00,8,4,14,0.00
2013-12-31,54,38,24,28,22,17,82,56,31,0.00,40.00,10,4,19,0.00
2014-1-1,65,46,30,48,37,28,96,74,47,0.00,40.00,19,8,33,0.00
2014-1-2,43,32,23,31,18,15,74,57,35,0.00,40.00,19,11,33,0.00